createdAt,value
2019-03-13T00:00:23.724Z,0
2019-03-13T00:01:26.172Z,0
2019-03-13T00:02:23.669Z,0
2019-03-13T00:03:23.638Z,0
2019-03-13T00:04:23.607Z,0
2019-03-13T00:05:23.577Z,0
2019-03-13T00:06:23.538Z,0
2019-03-13T00:07:23.505Z,0
2019-03-13T00:08:23.245Z,0
2019-03-13T00:09:23.447Z,0
2019-03-13T00:10:23.412Z,0
2019-03-13T00:11:23.390Z,0
2019-03-13T00:12:23.363Z,0
2019-03-13T00:13:23.445Z,0
2019-03-13T00:14:23.297Z,0
2019-03-13T00:15:23.032Z,0
2019-03-13T00:16:23.244Z,0
2019-03-13T00:17:23.190Z,0
2019-03-13T00:18:23.167Z,0
2019-03-13T00:19:23.141Z,0
2019-03-13T00:20:23.113Z,0
2019-03-13T00:21:23.080Z,0
2019-03-13T00:22:23.062Z,0
2019-03-13T00:23:23.016Z,0
2019-03-13T00:24:23.028Z,0
2019-03-13T00:25:22.956Z,0
2019-03-13T00:26:22.925Z,0
2019-03-13T00:27:22.980Z,0
2019-03-13T00:28:22.962Z,0
2019-03-13T00:29:22.832Z,0
2019-03-13T00:30:22.812Z,0
2019-03-13T00:31:22.764Z,0
2019-03-13T00:32:22.729Z,0
2019-03-13T00:33:22.706Z,0
2019-03-13T00:34:22.674Z,0
2019-03-13T00:35:22.640Z,0
2019-03-13T00:36:22.610Z,0
2019-03-13T00:37:22.577Z,0
2019-03-13T00:38:22.554Z,0
2019-03-13T00:39:22.516Z,0
2019-03-13T00:40:22.482Z,0
2019-03-13T00:41:22.544Z,0
2019-03-13T00:42:22.423Z,0
2019-03-13T00:43:22.395Z,0
2019-03-13T00:44:22.364Z,0
2019-03-13T00:45:22.339Z,0
2019-03-13T00:46:22.306Z,0
2019-03-13T00:47:22.275Z,0
2019-03-13T00:48:22.298Z,0
2019-03-13T00:49:22.242Z,0
2019-03-13T00:50:22.192Z,0
2019-03-13T00:51:22.181Z,0
2019-03-13T00:52:22.127Z,0
2019-03-13T00:53:22.081Z,0
2019-03-13T00:54:22.054Z,0
2019-03-13T00:55:22.032Z,0
2019-03-13T00:56:22.020Z,0
2019-03-13T00:57:21.964Z,0
2019-03-13T00:58:25.292Z,0
2019-03-13T00:59:21.904Z,0
2019-03-13T01:00:21.875Z,0
2019-03-13T01:01:21.845Z,0
2019-03-13T01:02:21.565Z,0
2019-03-13T01:03:21.775Z,0
2019-03-13T01:04:21.744Z,0
2019-03-13T01:05:21.717Z,0
2019-03-13T01:06:21.724Z,0
2019-03-13T01:07:21.652Z,0
2019-03-13T01:08:21.624Z,0
2019-03-13T01:09:21.595Z,0
2019-03-13T01:10:21.566Z,0
2019-03-13T01:11:21.532Z,0
2019-03-13T01:12:21.497Z,0
2019-03-13T01:13:21.490Z,0
2019-03-13T01:14:21.469Z,0
2019-03-13T01:15:21.404Z,0
2019-03-13T01:16:21.381Z,0
2019-03-13T01:17:21.342Z,0
2019-03-13T01:18:21.317Z,0
2019-03-13T01:19:21.292Z,0
2019-03-13T01:20:21.255Z,0
2019-03-13T01:21:21.223Z,0
2019-03-13T01:22:21.194Z,0
2019-03-13T01:23:21.156Z,0
2019-03-13T01:24:21.141Z,0
2019-03-13T01:25:21.093Z,0
2019-03-13T01:26:21.078Z,0
2019-03-13T01:27:21.034Z,0
2019-03-13T01:28:21.093Z,0
2019-03-13T01:29:20.978Z,0
2019-03-13T01:30:20.942Z,0
2019-03-13T01:31:20.919Z,0
2019-03-13T01:32:20.882Z,0
2019-03-13T01:33:20.855Z,0
2019-03-13T01:34:20.818Z,0
2019-03-13T01:35:20.549Z,0
2019-03-13T01:36:20.804Z,0
2019-03-13T01:37:20.727Z,0
2019-03-13T01:38:20.695Z,0
2019-03-13T01:39:20.666Z,0
2019-03-13T01:40:20.633Z,0
2019-03-13T01:41:20.602Z,0
2019-03-13T01:42:20.575Z,0
2019-03-13T01:43:20.556Z,0
2019-03-13T01:44:20.509Z,0
2019-03-13T01:45:20.483Z,0
2019-03-13T01:46:20.443Z,0
2019-03-13T01:47:20.416Z,0
2019-03-13T01:48:20.390Z,0
2019-03-13T01:49:20.359Z,0
2019-03-13T01:50:20.435Z,0
2019-03-13T01:51:20.289Z,0
2019-03-13T01:52:20.266Z,0
2019-03-13T01:53:20.231Z,0
2019-03-13T01:54:20.197Z,0
2019-03-13T01:55:20.165Z,0
2019-03-13T01:56:20.133Z,0
2019-03-13T01:57:20.112Z,0
2019-03-13T01:58:20.075Z,0
2019-03-13T01:59:20.088Z,0
2019-03-13T02:00:20.018Z,0
2019-03-13T02:01:19.982Z,0
2019-03-13T02:02:19.955Z,0
2019-03-13T02:03:19.926Z,0
2019-03-13T02:04:19.886Z,0
2019-03-13T02:05:19.880Z,0
2019-03-13T02:06:19.832Z,0
2019-03-13T02:07:19.797Z,0
2019-03-13T02:08:19.763Z,0
2019-03-13T02:09:19.733Z,0
2019-03-13T02:10:19.726Z,0
2019-03-13T02:11:19.672Z,0
2019-03-13T02:12:19.646Z,0
2019-03-13T02:13:19.611Z,0
2019-03-13T02:14:19.811Z,0
2019-03-13T02:15:19.548Z,0
2019-03-13T02:16:19.517Z,0
2019-03-13T02:17:19.482Z,0
2019-03-13T02:18:19.455Z,0
2019-03-13T02:19:19.420Z,0
2019-03-13T02:20:19.389Z,0
2019-03-13T02:21:19.120Z,0
2019-03-13T02:22:19.324Z,0
2019-03-13T02:23:19.292Z,0
2019-03-13T02:24:19.288Z,0
2019-03-13T02:25:19.238Z,0
2019-03-13T02:26:19.204Z,0
2019-03-13T02:27:19.171Z,0
2019-03-13T02:28:19.135Z,0
2019-03-13T02:29:19.111Z,0
2019-03-13T02:30:19.101Z,0
2019-03-13T02:31:19.070Z,0
2019-03-13T02:32:19.029Z,0
2019-03-13T02:33:18.987Z,0
2019-03-13T02:34:18.995Z,0
2019-03-13T02:35:18.956Z,0
2019-03-13T02:36:18.909Z,0
2019-03-13T02:37:18.881Z,0
2019-03-13T02:38:18.841Z,0
2019-03-13T02:39:18.803Z,0
2019-03-13T02:40:18.779Z,0
2019-03-13T02:41:18.741Z,0
2019-03-13T02:42:18.717Z,0
2019-03-13T02:43:18.712Z,0
2019-03-13T02:44:18.653Z,0
2019-03-13T02:45:18.633Z,0
2019-03-13T02:46:18.725Z,0
2019-03-13T02:47:21.570Z,0
2019-03-13T02:48:18.542Z,0
2019-03-13T02:49:18.522Z,0
2019-03-13T02:50:18.518Z,0
2019-03-13T02:51:18.426Z,0
2019-03-13T02:52:18.395Z,0
2019-03-13T02:53:18.379Z,0
2019-03-13T02:54:18.340Z,0
2019-03-13T02:55:18.324Z,0
2019-03-13T02:56:18.293Z,0
2019-03-13T02:57:18.247Z,0
2019-03-13T02:58:18.211Z,0
2019-03-13T02:59:18.324Z,0
2019-03-13T03:00:18.490Z,0
2019-03-13T03:01:18.125Z,0
2019-03-13T03:02:18.094Z,0
2019-03-13T03:03:18.065Z,0
2019-03-13T03:04:18.063Z,0
2019-03-13T03:05:18.201Z,0
2019-03-13T03:06:17.991Z,0
2019-03-13T03:07:19.935Z,0
2019-03-13T03:08:17.942Z,0
2019-03-13T03:09:17.919Z,0
2019-03-13T03:10:17.851Z,0
2019-03-13T03:11:17.823Z,0
2019-03-13T03:12:17.813Z,0
2019-03-13T03:13:17.750Z,0
2019-03-13T03:14:17.725Z,0
2019-03-13T03:15:17.696Z,0
2019-03-13T03:16:17.683Z,0
2019-03-13T03:17:17.627Z,0
2019-03-13T03:18:17.650Z,0
2019-03-13T03:19:17.614Z,0
2019-03-13T03:20:17.326Z,0
2019-03-13T03:21:17.585Z,0
2019-03-13T03:22:17.472Z,0
2019-03-13T03:23:17.442Z,0
2019-03-13T03:24:17.422Z,0
2019-03-13T03:25:17.383Z,0
2019-03-13T03:26:17.356Z,0
2019-03-13T03:27:17.329Z,0
2019-03-13T03:28:17.442Z,0
2019-03-13T03:29:17.319Z,0
2019-03-13T03:30:17.418Z,0
2019-03-13T03:31:17.272Z,0
2019-03-13T03:32:17.198Z,0
2019-03-13T03:33:17.245Z,0
2019-03-13T03:34:17.133Z,0
2019-03-13T03:35:17.177Z,0
2019-03-13T03:36:17.043Z,0
2019-03-13T03:37:17.082Z,0
2019-03-13T03:38:16.982Z,0
2019-03-13T03:39:16.982Z,0
2019-03-13T03:40:21.658Z,0
2019-03-13T03:41:16.944Z,0
2019-03-13T03:42:16.854Z,0
2019-03-13T03:43:16.848Z,0
2019-03-13T03:44:16.811Z,0
2019-03-13T03:45:16.786Z,0
2019-03-13T03:46:16.735Z,0
2019-03-13T03:47:16.742Z,0
2019-03-13T03:48:16.683Z,0
2019-03-13T03:49:16.662Z,0
2019-03-13T03:50:16.638Z,0
2019-03-13T03:51:16.586Z,0
2019-03-13T03:52:16.698Z,0
2019-03-13T03:53:16.553Z,0
2019-03-13T03:54:16.280Z,0
2019-03-13T03:55:16.629Z,0
2019-03-13T03:56:16.450Z,0
2019-03-13T03:57:16.557Z,0
2019-03-13T03:58:16.380Z,0
2019-03-13T03:59:16.347Z,0
2019-03-13T04:00:16.422Z,0
2019-03-13T04:01:16.283Z,0
2019-03-13T04:02:16.265Z,0
2019-03-13T04:03:16.227Z,0
2019-03-13T04:04:16.203Z,0
2019-03-13T04:05:16.172Z,0
2019-03-13T04:06:16.125Z,0
2019-03-13T04:07:16.124Z,0
2019-03-13T04:08:16.067Z,0
2019-03-13T04:09:16.089Z,0
2019-03-13T04:10:16.061Z,0
2019-03-13T04:11:15.990Z,0
2019-03-13T04:12:15.945Z,0
2019-03-13T04:13:15.938Z,0
2019-03-13T04:14:15.924Z,0
2019-03-13T04:15:15.925Z,0
2019-03-13T04:16:15.901Z,0
2019-03-13T04:17:15.792Z,0
2019-03-13T04:18:15.776Z,0
2019-03-13T04:19:15.739Z,0
2019-03-13T04:20:15.702Z,0
2019-03-13T04:21:15.680Z,0
2019-03-13T04:22:15.642Z,0
2019-03-13T04:23:15.612Z,0
2019-03-13T04:24:15.590Z,0
2019-03-13T04:25:15.572Z,0
2019-03-13T04:26:19.766Z,0
2019-03-13T04:27:15.248Z,0
2019-03-13T04:28:15.510Z,0
2019-03-13T04:29:15.440Z,0
2019-03-13T04:30:15.408Z,0
2019-03-13T04:31:15.389Z,0
2019-03-13T04:32:15.379Z,0
2019-03-13T04:33:15.310Z,0
2019-03-13T04:34:15.276Z,0
2019-03-13T04:35:15.275Z,0
2019-03-13T04:36:15.229Z,0
2019-03-13T04:37:15.293Z,0
2019-03-13T04:38:15.285Z,0
2019-03-13T04:39:15.331Z,0
2019-03-13T04:40:15.098Z,0
2019-03-13T04:41:15.062Z,0
2019-03-13T04:42:15.031Z,0
2019-03-13T04:43:15.024Z,0
2019-03-13T04:44:14.974Z,0
2019-03-13T04:45:14.956Z,0
2019-03-13T04:46:14.924Z,0
2019-03-13T04:47:14.876Z,0
2019-03-13T04:48:14.857Z,0
2019-03-13T04:49:14.813Z,0
2019-03-13T04:50:14.570Z,0
2019-03-13T04:51:14.754Z,0
2019-03-13T04:52:14.723Z,0
2019-03-13T04:53:14.694Z,0
2019-03-13T04:54:14.683Z,0
2019-03-13T04:55:14.637Z,0
2019-03-13T04:56:14.599Z,0
2019-03-13T04:57:14.574Z,0
2019-03-13T04:58:14.541Z,0
2019-03-13T04:59:14.507Z,0
2019-03-13T05:00:14.254Z,0
2019-03-13T05:01:14.499Z,0
2019-03-13T05:02:14.424Z,0
2019-03-13T05:03:14.397Z,0
2019-03-13T05:04:14.373Z,0
2019-03-13T05:05:15.710Z,0
2019-03-13T05:06:14.337Z,0
2019-03-13T05:07:14.272Z,0
2019-03-13T05:08:14.253Z,0
2019-03-13T05:09:14.212Z,0
2019-03-13T05:10:14.183Z,0
2019-03-13T05:11:14.151Z,0
2019-03-13T05:12:14.347Z,0
2019-03-13T05:13:14.589Z,0
2019-03-13T05:14:14.058Z,0
2019-03-13T05:15:14.031Z,0
2019-03-13T05:16:14.003Z,0
2019-03-13T05:17:13.972Z,0
2019-03-13T05:18:14.030Z,0
2019-03-13T05:19:13.917Z,0
2019-03-13T05:20:16.294Z,0
2019-03-13T05:21:13.851Z,0
2019-03-13T05:22:13.902Z,0
2019-03-13T05:23:13.792Z,0
2019-03-13T05:24:13.594Z,0
2019-03-13T05:25:13.734Z,4
2019-03-13T05:26:13.799Z,4
2019-03-13T05:27:13.674Z,4
2019-03-13T05:28:13.650Z,4
2019-03-13T05:29:13.691Z,4
2019-03-13T05:30:13.582Z,4
2019-03-13T05:31:13.548Z,8
2019-03-13T05:32:13.519Z,4
2019-03-13T05:33:13.482Z,8
2019-03-13T05:34:13.459Z,12
2019-03-13T05:35:13.438Z,12
2019-03-13T05:36:16.437Z,12
2019-03-13T05:37:13.374Z,20
2019-03-13T05:38:13.337Z,28
2019-03-13T05:39:13.302Z,32
2019-03-13T05:40:13.280Z,32
2019-03-13T05:41:13.246Z,40
2019-03-13T05:42:13.221Z,36
2019-03-13T05:43:13.184Z,40
2019-03-13T05:44:13.183Z,52
2019-03-13T05:45:15.938Z,64
2019-03-13T05:46:13.094Z,72
2019-03-13T05:47:13.101Z,76
2019-03-13T05:48:13.031Z,84
2019-03-13T05:49:13.011Z,84
2019-03-13T05:50:12.975Z,104
2019-03-13T05:51:12.980Z,108
2019-03-13T05:52:12.937Z,132
2019-03-13T05:53:12.907Z,144
2019-03-13T05:54:12.860Z,152
2019-03-13T05:55:12.594Z,168
2019-03-13T05:56:12.794Z,164
2019-03-13T05:57:12.764Z,192
2019-03-13T05:58:12.502Z,208
2019-03-13T05:59:12.711Z,208
2019-03-13T06:00:12.435Z,208
2019-03-13T06:01:12.720Z,232
2019-03-13T06:02:12.611Z,252
2019-03-13T06:03:12.592Z,296
2019-03-13T06:04:12.563Z,320
2019-03-13T06:05:12.529Z,328
2019-03-13T06:06:12.487Z,368
2019-03-13T06:07:12.481Z,328
2019-03-13T06:08:12.431Z,324
2019-03-13T06:09:12.432Z,388
2019-03-13T06:10:12.434Z,432
2019-03-13T06:11:12.345Z,452
2019-03-13T06:12:12.310Z,488
2019-03-13T06:13:12.547Z,504
2019-03-13T06:14:12.266Z,540
2019-03-13T06:15:12.338Z,556
2019-03-13T06:16:12.190Z,592
2019-03-13T06:17:12.162Z,604
2019-03-13T06:18:14.630Z,628
2019-03-13T06:19:12.117Z,704
2019-03-13T06:20:15.202Z,768
2019-03-13T06:21:12.042Z,928
2019-03-13T06:22:12.013Z,900
2019-03-13T06:23:12.059Z,1016
2019-03-13T06:24:11.951Z,1204
2019-03-13T06:25:11.928Z,1336
2019-03-13T06:26:12.144Z,1180
2019-03-13T06:27:11.859Z,972
2019-03-13T06:28:11.834Z,1220
2019-03-13T06:29:11.852Z,1280
2019-03-13T06:30:12.116Z,1260
2019-03-13T06:31:12.400Z,1376
2019-03-13T06:32:11.719Z,1400
2019-03-13T06:33:11.717Z,1148
2019-03-13T06:34:13.954Z,1200
2019-03-13T06:35:11.628Z,1312
2019-03-13T06:36:11.648Z,1428
2019-03-13T06:37:11.557Z,1292
2019-03-13T06:38:11.597Z,1496
2019-03-13T06:39:11.506Z,1556
2019-03-13T06:40:11.471Z,1496
2019-03-13T06:41:12.446Z,1440
2019-03-13T06:42:11.176Z,1400
2019-03-13T06:43:11.394Z,1232
2019-03-13T06:44:11.360Z,1528
2019-03-13T06:45:11.326Z,1780
2019-03-13T06:46:11.278Z,1636
2019-03-13T06:47:11.044Z,1340
2019-03-13T06:48:11.006Z,1288
2019-03-13T06:49:11.264Z,1468
2019-03-13T06:50:11.584Z,1732
2019-03-13T06:51:11.150Z,1880
2019-03-13T06:52:11.119Z,2068
2019-03-13T06:53:11.094Z,1940
2019-03-13T06:54:11.096Z,1628
2019-03-13T06:55:11.025Z,2364
2019-03-13T06:56:10.997Z,2736
2019-03-13T06:57:11.076Z,2460
2019-03-13T06:58:10.985Z,2304
2019-03-13T06:59:13.312Z,2444
2019-03-13T07:00:10.889Z,2500
2019-03-13T07:01:10.958Z,2828
2019-03-13T07:02:10.834Z,3236
2019-03-13T07:03:10.791Z,3160
2019-03-13T07:04:10.763Z,3564
2019-03-13T07:05:10.734Z,4368
2019-03-13T07:06:10.702Z,4348
2019-03-13T07:07:10.670Z,4192
2019-03-13T07:08:10.643Z,3728
2019-03-13T07:09:10.626Z,3476
2019-03-13T07:10:10.674Z,4584
2019-03-13T07:11:10.561Z,4244
2019-03-13T07:12:10.524Z,3016
2019-03-13T07:13:10.496Z,2492
2019-03-13T07:14:10.518Z,3108
2019-03-13T07:15:10.433Z,4140
2019-03-13T07:16:10.403Z,4560
2019-03-13T07:17:10.388Z,4640
2019-03-13T07:18:10.356Z,3212
2019-03-13T07:19:10.319Z,2612
2019-03-13T07:20:10.281Z,2048
2019-03-13T07:21:10.257Z,2480
2019-03-13T07:22:10.230Z,3448
2019-03-13T07:23:10.200Z,3728
2019-03-13T07:24:10.165Z,3296
2019-03-13T07:25:10.139Z,3052
2019-03-13T07:26:10.115Z,3552
2019-03-13T07:27:10.092Z,3544
2019-03-13T07:28:10.048Z,3644
2019-03-13T07:29:19.698Z,2952
2019-03-13T07:30:10.953Z,2820
2019-03-13T07:31:10.700Z,2800
2019-03-13T07:32:09.930Z,4196
2019-03-13T07:33:09.899Z,5236
2019-03-13T07:34:09.873Z,5012
2019-03-13T07:35:09.848Z,6196
2019-03-13T07:36:09.861Z,5828
2019-03-13T07:37:09.547Z,5648
2019-03-13T07:38:09.788Z,5168
2019-03-13T07:39:09.727Z,6068
2019-03-13T07:40:09.700Z,8556
2019-03-13T07:41:09.664Z,7952
2019-03-13T07:42:09.656Z,7924
2019-03-13T07:43:09.619Z,8116
2019-03-13T07:44:09.574Z,6992
2019-03-13T07:45:09.546Z,5448
2019-03-13T07:46:09.510Z,6312
2019-03-13T07:47:09.486Z,7292
2019-03-13T07:48:09.451Z,9032
2019-03-13T07:49:09.421Z,8556
2019-03-13T07:50:09.396Z,7360
2019-03-13T07:51:09.364Z,5528
2019-03-13T07:52:09.342Z,5148
2019-03-13T07:53:09.320Z,6040
2019-03-13T07:54:09.291Z,7364
2019-03-13T07:55:09.267Z,7304
2019-03-13T07:56:09.033Z,6476
2019-03-13T07:57:09.200Z,6716
2019-03-13T07:58:09.166Z,5188
2019-03-13T07:59:09.136Z,4592
2019-03-13T08:00:09.385Z,4860
2019-03-13T08:01:09.074Z,4940
2019-03-13T08:02:08.871Z,5768
2019-03-13T08:03:09.016Z,5240
2019-03-13T08:04:12.281Z,5600
2019-03-13T08:05:08.963Z,6380
2019-03-13T08:06:08.922Z,7796
2019-03-13T08:07:08.902Z,8388
2019-03-13T08:08:08.866Z,5836
2019-03-13T08:09:08.835Z,6484
2019-03-13T08:10:08.812Z,7104
2019-03-13T08:11:08.789Z,5380
2019-03-13T08:12:08.747Z,5340
2019-03-13T08:13:08.788Z,6192
2019-03-13T08:14:09.979Z,5740
2019-03-13T08:15:08.700Z,6152
2019-03-13T08:16:08.626Z,6376
2019-03-13T08:17:08.606Z,6128
2019-03-13T08:18:08.575Z,5036
2019-03-13T08:19:08.543Z,5344
2019-03-13T08:20:08.513Z,5756
2019-03-13T08:21:08.481Z,4820
2019-03-13T08:22:08.479Z,5480
2019-03-13T08:23:08.438Z,5376
2019-03-13T08:24:08.397Z,5796
2019-03-13T08:25:10.475Z,4488
2019-03-13T08:26:08.124Z,3672
2019-03-13T08:27:08.410Z,3160
2019-03-13T08:28:08.280Z,3356
2019-03-13T08:29:08.250Z,3980
2019-03-13T08:30:08.231Z,4232
2019-03-13T08:31:08.217Z,5912
2019-03-13T08:32:08.171Z,7180
2019-03-13T08:33:08.132Z,6832
2019-03-13T08:34:07.882Z,8184
2019-03-13T08:35:07.829Z,8256
2019-03-13T08:36:08.033Z,8256
2019-03-13T08:37:08.060Z,7268
2019-03-13T08:38:07.738Z,6468
2019-03-13T08:39:07.953Z,5880
2019-03-13T08:40:07.922Z,4876
2019-03-13T08:41:07.902Z,4324
2019-03-13T08:42:08.494Z,4140
2019-03-13T08:43:07.421Z,4712
2019-03-13T08:44:07.898Z,4524
2019-03-13T08:45:07.658Z,4940
2019-03-13T08:46:08.064Z,6040
2019-03-13T08:47:07.985Z,5964
2019-03-13T08:48:07.768Z,6180
2019-03-13T08:49:07.688Z,6924
2019-03-13T08:50:07.606Z,8244
2019-03-13T08:51:07.693Z,6324
2019-03-13T08:52:07.459Z,6524
2019-03-13T08:53:07.686Z,7504
2019-03-13T08:54:07.520Z,8480
2019-03-13T08:55:07.637Z,10040
2019-03-13T08:56:07.444Z,8996
2019-03-13T08:57:07.418Z,8912
2019-03-13T08:58:07.400Z,9864
2019-03-13T08:59:07.372Z,10708
2019-03-13T09:00:07.641Z,8572
2019-03-13T09:01:07.065Z,8168
2019-03-13T09:02:07.299Z,8744
2019-03-13T09:03:07.291Z,8612
2019-03-13T09:04:07.230Z,10548
2019-03-13T09:05:07.483Z,11800
2019-03-13T09:06:07.512Z,13728
2019-03-13T09:07:07.154Z,15456
2019-03-13T09:08:07.105Z,16528
2019-03-13T09:09:07.072Z,17440
2019-03-13T09:10:07.069Z,13704
2019-03-13T09:11:07.025Z,11444
2019-03-13T09:12:07.007Z,10748
2019-03-13T09:13:08.980Z,6816
2019-03-13T09:14:06.930Z,6560
2019-03-13T09:15:06.900Z,7588
2019-03-13T09:16:06.886Z,7328
2019-03-13T09:17:06.849Z,7968
2019-03-13T09:18:06.815Z,7976
2019-03-13T09:19:07.831Z,7956
2019-03-13T09:20:06.771Z,8148
2019-03-13T09:21:06.736Z,9236
2019-03-13T09:22:06.722Z,8464
2019-03-13T09:23:06.681Z,9224
2019-03-13T09:24:06.653Z,7364
2019-03-13T09:25:18.332Z,7240
2019-03-13T09:26:06.607Z,7088
2019-03-13T09:27:06.570Z,9080
2019-03-13T09:28:06.543Z,8360
2019-03-13T09:29:06.513Z,7168
2019-03-13T09:30:06.495Z,6780
2019-03-13T09:31:06.460Z,5960
2019-03-13T09:32:06.430Z,6372
2019-03-13T09:33:06.420Z,7308
2019-03-13T09:34:06.432Z,6752
2019-03-13T09:35:06.402Z,5308
2019-03-13T09:36:06.410Z,5468
2019-03-13T09:37:06.291Z,5516
2019-03-13T09:38:06.259Z,6144
2019-03-13T09:39:06.244Z,6580
2019-03-13T09:40:06.195Z,6360
2019-03-13T09:41:06.166Z,6240
2019-03-13T09:42:06.152Z,6120
2019-03-13T09:43:06.217Z,6436
2019-03-13T09:44:07.077Z,6256
2019-03-13T09:45:06.053Z,6528
2019-03-13T09:46:05.546Z,6764
2019-03-13T09:47:06.009Z,7628
2019-03-13T09:48:05.968Z,8720
2019-03-13T09:49:05.968Z,8220
2019-03-13T09:50:05.917Z,7812
2019-03-13T09:51:05.882Z,9000
2019-03-13T09:52:05.872Z,9496
2019-03-13T09:53:05.821Z,9448
2019-03-13T09:54:05.799Z,8616
2019-03-13T09:55:09.221Z,8060
2019-03-13T09:56:05.749Z,8148
2019-03-13T09:57:05.796Z,6632
2019-03-13T09:58:05.676Z,5844
2019-03-13T09:59:05.425Z,5736
2019-03-13T10:00:05.385Z,4892
2019-03-13T10:01:05.593Z,4556
2019-03-13T10:02:05.586Z,5192
2019-03-13T10:03:05.533Z,5360
2019-03-13T10:04:05.503Z,6272
2019-03-13T10:05:05.487Z,6792
2019-03-13T10:06:05.451Z,7108
2019-03-13T10:07:05.414Z,7356
2019-03-13T10:08:05.399Z,7596
2019-03-13T10:09:05.360Z,8160
2019-03-13T10:10:05.332Z,8372
2019-03-13T10:11:05.296Z,7564
2019-03-13T10:12:05.372Z,6912
2019-03-13T10:13:05.363Z,6272
2019-03-13T10:14:04.968Z,6568
2019-03-13T10:15:05.265Z,6664
2019-03-13T10:16:05.155Z,6564
2019-03-13T10:17:17.747Z,6456
2019-03-13T10:18:05.097Z,6132
2019-03-13T10:19:05.087Z,6068
2019-03-13T10:20:05.162Z,5208
2019-03-13T10:21:05.009Z,5672
2019-03-13T10:22:04.972Z,6804
2019-03-13T10:23:04.945Z,7172
2019-03-13T10:24:04.908Z,6884
2019-03-13T10:25:05.111Z,7404
2019-03-13T10:26:04.617Z,8920
2019-03-13T10:27:04.823Z,8388
2019-03-13T10:28:04.792Z,9336
2019-03-13T10:29:04.756Z,10464
2019-03-13T10:30:04.752Z,8556
2019-03-13T10:31:04.724Z,9364
2019-03-13T10:32:04.689Z,12020
2019-03-13T10:33:04.646Z,13552
2019-03-13T10:34:04.617Z,13088
2019-03-13T10:35:04.599Z,11240
2019-03-13T10:36:04.552Z,11096
2019-03-13T10:37:04.919Z,16128
2019-03-13T10:38:17.745Z,22816
2019-03-13T10:39:04.468Z,20544
2019-03-13T10:40:04.439Z,20576
2019-03-13T10:41:04.169Z,18848
2019-03-13T10:42:05.992Z,18272
2019-03-13T10:43:04.120Z,19296
2019-03-13T10:44:04.335Z,16792
2019-03-13T10:45:04.289Z,17856
2019-03-13T10:46:04.389Z,18592
2019-03-13T10:47:04.246Z,22336
2019-03-13T10:48:04.226Z,22272
2019-03-13T10:49:04.188Z,18656
2019-03-13T10:50:04.172Z,15368
2019-03-13T10:51:04.132Z,11800
2019-03-13T10:52:04.346Z,9680
2019-03-13T10:53:04.070Z,10088
2019-03-13T10:54:04.036Z,11584
2019-03-13T10:55:04.009Z,9600
2019-03-13T10:56:03.978Z,12448
2019-03-13T10:57:04.016Z,13808
2019-03-13T10:58:03.928Z,13520
2019-03-13T10:59:03.897Z,10500
2019-03-13T11:00:03.884Z,9384
2019-03-13T11:01:03.846Z,9620
2019-03-13T11:02:03.812Z,9976
2019-03-13T11:03:03.909Z,10440
2019-03-13T11:04:03.775Z,10780
2019-03-13T11:05:03.726Z,12292
2019-03-13T11:06:03.703Z,10756
2019-03-13T11:07:03.669Z,10544
2019-03-13T11:08:03.662Z,11092
2019-03-13T11:09:03.616Z,9736
2019-03-13T11:10:03.584Z,9364
2019-03-13T11:11:03.557Z,8800
2019-03-13T11:12:03.522Z,8936
2019-03-13T11:13:03.498Z,8740
2019-03-13T11:14:17.242Z,10352
2019-03-13T11:15:03.556Z,8972
2019-03-13T11:16:03.412Z,9224
2019-03-13T11:17:03.151Z,10404
2019-03-13T11:18:03.360Z,9708
2019-03-13T11:19:03.415Z,10744
2019-03-13T11:20:03.313Z,10228
2019-03-13T11:21:03.269Z,14208
2019-03-13T11:22:03.239Z,16068
2019-03-13T11:23:03.204Z,18752
2019-03-13T11:24:05.770Z,17124
2019-03-13T11:25:03.158Z,11688
2019-03-13T11:26:03.124Z,9568
2019-03-13T11:27:03.172Z,8120
2019-03-13T11:28:03.130Z,10108
2019-03-13T11:29:03.111Z,10748
2019-03-13T11:30:03.052Z,12340
2019-03-13T11:31:03.015Z,12032
2019-03-13T11:32:02.958Z,10032
2019-03-13T11:33:02.944Z,9120
2019-03-13T11:34:02.896Z,10348
2019-03-13T11:35:02.884Z,10032
2019-03-13T11:36:02.860Z,8448
2019-03-13T11:37:02.824Z,10984
2019-03-13T11:38:02.541Z,10176
2019-03-13T11:39:02.757Z,10592
2019-03-13T11:40:02.869Z,10044
2019-03-13T11:41:02.698Z,8456
2019-03-13T11:42:02.669Z,7320
2019-03-13T11:43:02.638Z,8228
2019-03-13T11:44:02.625Z,9888
2019-03-13T11:45:02.746Z,11748
2019-03-13T11:46:02.558Z,11216
2019-03-13T11:47:02.526Z,9208
2019-03-13T11:48:02.490Z,8964
2019-03-13T11:49:02.473Z,6744
2019-03-13T11:50:02.747Z,6360
2019-03-13T11:51:02.418Z,6152
2019-03-13T11:52:02.451Z,7340
2019-03-13T11:53:02.367Z,8984
2019-03-13T11:54:02.335Z,9880
2019-03-13T11:55:02.302Z,10368
2019-03-13T11:56:02.274Z,9432
2019-03-13T11:57:02.335Z,9020
2019-03-13T11:58:02.213Z,7644
2019-03-13T11:59:02.269Z,7756
2019-03-13T12:00:03.058Z,6860
2019-03-13T12:01:02.141Z,5648
2019-03-13T12:02:02.091Z,6908
2019-03-13T12:03:02.066Z,6716
2019-03-13T12:04:02.033Z,5804
2019-03-13T12:05:02.087Z,5620
2019-03-13T12:06:01.985Z,6216
2019-03-13T12:07:01.957Z,6460
2019-03-13T12:08:01.979Z,6888
2019-03-13T12:09:03.659Z,9052
2019-03-13T12:10:01.864Z,8232
2019-03-13T12:11:01.867Z,10148
2019-03-13T12:12:01.853Z,10864
2019-03-13T12:13:02.663Z,9532
2019-03-13T12:14:01.753Z,8768
2019-03-13T12:15:01.722Z,10884
2019-03-13T12:16:01.690Z,11232
2019-03-13T12:17:01.691Z,10936
2019-03-13T12:18:01.649Z,9264
2019-03-13T12:19:01.684Z,9568
2019-03-13T12:20:01.585Z,8912
2019-03-13T12:21:04.257Z,8228
2019-03-13T12:22:01.542Z,7308
2019-03-13T12:23:01.554Z,6244
2019-03-13T12:24:01.480Z,6364
2019-03-13T12:25:01.442Z,6136
2019-03-13T12:26:03.190Z,6572
2019-03-13T12:27:01.385Z,6076
2019-03-13T12:28:01.413Z,7248
2019-03-13T12:29:01.318Z,8860
2019-03-13T12:30:01.057Z,8632
2019-03-13T12:31:01.276Z,9540
2019-03-13T12:32:01.238Z,8340
2019-03-13T12:33:01.206Z,8692
2019-03-13T12:34:00.996Z,8036
2019-03-13T12:35:01.160Z,8408
2019-03-13T12:36:01.125Z,10552
2019-03-13T12:37:01.188Z,9040
2019-03-13T12:38:01.073Z,6696
2019-03-13T12:39:01.054Z,5708
2019-03-13T12:40:01.009Z,4908
2019-03-13T12:41:01.066Z,3592
2019-03-13T12:42:00.714Z,2852
2019-03-13T12:43:01.000Z,3232
2019-03-13T12:44:00.968Z,3692
2019-03-13T12:45:00.862Z,4268
2019-03-13T12:46:00.844Z,4280
2019-03-13T12:47:00.817Z,4880
2019-03-13T12:48:00.794Z,5316
2019-03-13T12:49:00.753Z,6852
2019-03-13T12:50:00.752Z,7468
2019-03-13T12:51:00.729Z,10104
2019-03-13T12:52:01.872Z,10436
2019-03-13T12:53:00.650Z,9612
2019-03-13T12:54:00.607Z,8564
2019-03-13T12:55:02.366Z,6296
2019-03-13T12:56:00.542Z,7320
2019-03-13T12:57:00.520Z,8024
2019-03-13T12:58:00.490Z,9152
2019-03-13T12:59:00.482Z,9340
2019-03-13T13:00:00.436Z,8052
2019-03-13T13:01:00.407Z,8568
2019-03-13T13:02:00.375Z,9724
2019-03-13T13:03:02.042Z,8144
2019-03-13T13:04:00.340Z,8732
2019-03-13T13:05:00.379Z,9464
2019-03-13T13:06:00.272Z,10376
2019-03-13T13:07:00.767Z,10512
2019-03-13T13:08:00.201Z,10192
2019-03-13T13:08:59.927Z,9956
2019-03-13T13:10:00.388Z,9308
2019-03-13T13:11:00.109Z,10052
2019-03-13T13:12:00.134Z,8088
2019-03-13T13:13:00.052Z,8212
2019-03-13T13:14:00.026Z,8488
2019-03-13T13:14:59.993Z,8608
2019-03-13T13:16:00.073Z,7428
2019-03-13T13:16:59.944Z,8404
2019-03-13T13:17:59.905Z,6620
2019-03-13T13:18:59.879Z,5384
2019-03-13T13:19:59.842Z,4792
2019-03-13T13:20:59.812Z,4868
2019-03-13T13:21:59.795Z,4196
2019-03-13T13:22:59.717Z,4036
2019-03-13T13:23:59.737Z,4412
2019-03-13T13:24:59.703Z,4588
2019-03-13T13:25:59.669Z,4620
2019-03-13T13:26:59.638Z,5096
2019-03-13T13:27:59.611Z,6036
2019-03-13T13:28:59.586Z,5448
2019-03-13T13:29:59.555Z,6756
2019-03-13T13:30:59.570Z,5820
2019-03-13T13:32:02.484Z,5684
2019-03-13T13:32:59.265Z,6252
2019-03-13T13:33:59.458Z,6508
2019-03-13T13:34:59.507Z,4896
2019-03-13T13:35:59.375Z,4952
2019-03-13T13:36:59.361Z,4076
2019-03-13T13:37:59.321Z,4016
2019-03-13T13:38:59.447Z,4148
2019-03-13T13:39:59.379Z,4668
2019-03-13T13:40:59.180Z,4568
2019-03-13T13:41:59.195Z,4004
2019-03-13T13:42:59.478Z,5160
2019-03-13T13:43:59.146Z,5344
2019-03-13T13:44:59.111Z,4308
2019-03-13T13:45:59.102Z,5644
2019-03-13T13:46:59.060Z,5324
2019-03-13T13:47:59.022Z,4784
2019-03-13T13:48:58.987Z,5552
2019-03-13T13:50:06.887Z,6024
2019-03-13T13:50:58.940Z,6316